sensor_id;sensor_type;location;lat;lon;timestamp;P1;durP1;ratioP1;P2;durP2;ratioP2
43809;SDS011;29440;48.208;11.162;2023-05-10T00:02:02;1.27;;;0.50;;
43809;SDS011;29440;48.208;11.162;2023-05-10T00:04:27;0.50;;;0.40;;
43809;SDS011;29440;48.208;11.162;2023-05-10T00:06:53;0.70;;;0.47;;
43809;SDS011;29440;48.208;11.162;2023-05-10T00:09:19;0.65;;;0.40;;
43809;SDS011;29440;48.208;11.162;2023-05-10T00:11:45;0.75;;;0.40;;
43809;SDS011;29440;48.208;11.162;2023-05-10T00:14:11;0.70;;;0.40;;
43809;SDS011;29440;48.208;11.162;2023-05-10T00:16:36;0.50;;;0.40;;
43809;SDS011;29440;48.208;11.162;2023-05-10T00:19:02;0.60;;;0.40;;
43809;SDS011;29440;48.208;11.162;2023-05-10T00:21:27;1.73;;;0.35;;
43809;SDS011;29440;48.208;11.162;2023-05-10T00:23:53;0.70;;;0.30;;
43809;SDS011;29440;48.208;11.162;2023-05-10T00:26:19;1.45;;;0.40;;
43809;SDS011;29440;48.208;11.162;2023-05-10T00:28:45;0.35;;;0.30;;
43809;SDS011;29440;48.208;11.162;2023-05-10T00:31:10;1.35;;;0.40;;
43809;SDS011;29440;48.208;11.162;2023-05-10T00:33:36;1.25;;;0.40;;
43809;SDS011;29440;48.208;11.162;2023-05-10T00:36:02;1.05;;;0.30;;
43809;SDS011;29440;48.208;11.162;2023-05-10T00:38:27;0.65;;;0.40;;
43809;SDS011;29440;48.208;11.162;2023-05-10T00:40:53;0.60;;;0.50;;
43809;SDS011;29440;48.208;11.162;2023-05-10T00:43:19;1.95;;;0.30;;
43809;SDS011;29440;48.208;11.162;2023-05-10T00:45:44;0.40;;;0.30;;
43809;SDS011;29440;48.208;11.162;2023-05-10T00:48:10;0.32;;;0.22;;
43809;SDS011;29440;48.208;11.162;2023-05-10T00:50:35;0.40;;;0.30;;
43809;SDS011;29440;48.208;11.162;2023-05-10T00:53:01;0.70;;;0.30;;
43809;SDS011;29440;48.208;11.162;2023-05-10T00:55:27;0.47;;;0.30;;
43809;SDS011;29440;48.208;11.162;2023-05-10T00:57:53;0.30;;;0.30;;
43809;SDS011;29440;48.208;11.162;2023-05-10T01:00:19;0.40;;;0.30;;
43809;SDS011;29440;48.208;11.162;2023-05-10T01:02:45;0.55;;;0.25;;
43809;SDS011;29440;48.208;11.162;2023-05-10T01:05:11;0.20;;;0.20;;
43809;SDS011;29440;48.208;11.162;2023-05-10T01:07:38;0.20;;;0.20;;
43809;SDS011;29440;48.208;11.162;2023-05-10T01:10:05;0.30;;;0.30;;
43809;SDS011;29440;48.208;11.162;2023-05-10T01:12:32;1.08;;;0.40;;
43809;SDS011;29440;48.208;11.162;2023-05-10T01:15:01;0.82;;;0.30;;
43809;SDS011;29440;48.208;11.162;2023-05-10T01:17:27;0.52;;;0.20;;
43809;SDS011;29440;48.208;11.162;2023-05-10T01:19:54;0.38;;;0.20;;
43809;SDS011;29440;48.208;11.162;2023-05-10T01:28:05;0.20;;;0.20;;
43809;SDS011;29440;48.208;11.162;2023-05-10T01:30:55;0.40;;;0.30;;
43809;SDS011;29440;48.208;11.162;2023-05-10T01:36:21;0.50;;;0.30;;
43809;SDS011;29440;48.208;11.162;2023-05-10T01:39:10;0.65;;;0.28;;
43809;SDS011;29440;48.208;11.162;2023-05-10T01:44:43;0.38;;;0.25;;
43809;SDS011;29440;48.208;11.162;2023-05-10T01:47:24;0.22;;;0.20;;
43809;SDS011;29440;48.208;11.162;2023-05-10T01:50:02;0.35;;;0.30;;
43809;SDS011;29440;48.208;11.162;2023-05-10T01:52:33;2.05;;;0.30;;
43809;SDS011;29440;48.208;11.162;2023-05-10T01:55:07;0.20;;;0.20;;
43809;SDS011;29440;48.208;11.162;2023-05-10T01:57:37;0.50;;;0.30;;
43809;SDS011;29440;48.208;11.162;2023-05-10T02:00:04;0.28;;;0.22;;
43809;SDS011;29440;48.208;11.162;2023-05-10T02:02:35;0.70;;;0.30;;
43809;SDS011;29440;48.208;11.162;2023-05-10T02:05:03;0.50;;;0.20;;
43809;SDS011;29440;48.208;11.162;2023-05-10T02:07:31;0.20;;;0.20;;
43809;SDS011;29440;48.208;11.162;2023-05-10T02:10:00;1.55;;;0.30;;
43809;SDS011;29440;48.208;11.162;2023-05-10T02:12:31;1.40;;;0.30;;
43809;SDS011;29440;48.208;11.162;2023-05-10T02:15:00;0.22;;;0.20;;
43809;SDS011;29440;48.208;11.162;2023-05-10T02:17:28;1.50;;;0.20;;
43809;SDS011;29440;48.208;11.162;2023-05-10T02:19:55;0.50;;;0.28;;
43809;SDS011;29440;48.208;11.162;2023-05-10T02:22:22;1.58;;;0.40;;
43809;SDS011;29440;48.208;11.162;2023-05-10T02:24:49;0.35;;;0.30;;
43809;SDS011;29440;48.208;11.162;2023-05-10T02:27:15;0.40;;;0.30;;
43809;SDS011;29440;48.208;11.162;2023-05-10T02:29:42;0.20;;;0.20;;
43809;SDS011;29440;48.208;11.162;2023-05-10T02:32:09;1.05;;;0.30;;
43809;SDS011;29440;48.208;11.162;2023-05-10T02:34:36;1.38;;;0.30;;
43809;SDS011;29440;48.208;11.162;2023-05-10T02:37:01;0.20;;;0.20;;
43809;SDS011;29440;48.208;11.162;2023-05-10T02:39:28;0.30;;;0.25;;
43809;SDS011;29440;48.208;11.162;2023-05-10T02:41:56;1.48;;;0.30;;
43809;SDS011;29440;48.208;11.162;2023-05-10T02:44:23;0.73;;;0.30;;
43809;SDS011;29440;48.208;11.162;2023-05-10T02:46:50;1.50;;;0.40;;
43809;SDS011;29440;48.208;11.162;2023-05-10T02:49:16;0.25;;;0.20;;
43809;SDS011;29440;48.208;11.162;2023-05-10T02:51:47;0.30;;;0.30;;
43809;SDS011;29440;48.208;11.162;2023-05-10T02:54:18;0.70;;;0.40;;
43809;SDS011;29440;48.208;11.162;2023-05-10T02:56:47;0.82;;;0.30;;
43809;SDS011;29440;48.208;11.162;2023-05-10T02:59:17;0.30;;;0.30;;
43809;SDS011;29440;48.208;11.162;2023-05-10T03:01:43;0.50;;;0.38;;
43809;SDS011;29440;48.208;11.162;2023-05-10T03:04:09;0.57;;;0.30;;
43809;SDS011;29440;48.208;11.162;2023-05-10T03:06:34;0.82;;;0.40;;
43809;SDS011;29440;48.208;11.162;2023-05-10T03:09:00;1.17;;;0.40;;
43809;SDS011;29440;48.208;11.162;2023-05-10T03:11:43;0.60;;;0.40;;
43809;SDS011;29440;48.208;11.162;2023-05-10T03:16:54;1.75;;;0.40;;
43809;SDS011;29440;48.208;11.162;2023-05-10T03:19:37;0.45;;;0.30;;
43809;SDS011;29440;48.208;11.162;2023-05-10T03:22:11;0.55;;;0.32;;
43809;SDS011;29440;48.208;11.162;2023-05-10T03:24:42;0.98;;;0.43;;
43809;SDS011;29440;48.208;11.162;2023-05-10T03:27:10;0.40;;;0.30;;
43809;SDS011;29440;48.208;11.162;2023-05-10T03:29:36;1.63;;;0.30;;
43809;SDS011;29440;48.208;11.162;2023-05-10T03:32:04;0.40;;;0.38;;
43809;SDS011;29440;48.208;11.162;2023-05-10T03:34:30;2.70;;;0.38;;
43809;SDS011;29440;48.208;11.162;2023-05-10T03:36:56;0.45;;;0.40;;
43809;SDS011;29440;48.208;11.162;2023-05-10T03:39:22;0.60;;;0.50;;
43809;SDS011;29440;48.208;11.162;2023-05-10T03:41:47;0.40;;;0.30;;
43809;SDS011;29440;48.208;11.162;2023-05-10T03:44:13;1.58;;;0.35;;
43809;SDS011;29440;48.208;11.162;2023-05-10T03:46:38;0.57;;;0.40;;
43809;SDS011;29440;48.208;11.162;2023-05-10T03:49:04;1.33;;;0.50;;
43809;SDS011;29440;48.208;11.162;2023-05-10T03:51:29;0.45;;;0.32;;
43809;SDS011;29440;48.208;11.162;2023-05-10T03:53:56;2.25;;;0.40;;
43809;SDS011;29440;48.208;11.162;2023-05-10T03:56:21;0.98;;;0.30;;
43809;SDS011;29440;48.208;11.162;2023-05-10T03:58:47;1.00;;;0.40;;
43809;SDS011;29440;48.208;11.162;2023-05-10T04:01:12;0.90;;;0.43;;
43809;SDS011;29440;48.208;11.162;2023-05-10T04:03:38;0.98;;;0.40;;
43809;SDS011;29440;48.208;11.162;2023-05-10T04:06:04;1.83;;;0.50;;
43809;SDS011;29440;48.208;11.162;2023-05-10T04:08:30;0.32;;;0.30;;
43809;SDS011;29440;48.208;11.162;2023-05-10T04:11:09;0.28;;;0.20;;
43809;SDS011;29440;48.208;11.162;2023-05-10T04:13:35;0.50;;;0.30;;
43809;SDS011;29440;48.208;11.162;2023-05-10T04:16:01;0.90;;;0.20;;
43809;SDS011;29440;48.208;11.162;2023-05-10T04:18:27;2.63;;;0.25;;
43809;SDS011;29440;48.208;11.162;2023-05-10T04:20:52;0.80;;;0.20;;
43809;SDS011;29440;48.208;11.162;2023-05-10T04:23:18;0.40;;;0.20;;
43809;SDS011;29440;48.208;11.162;2023-05-10T04:25:43;0.20;;;0.20;;
43809;SDS011;29440;48.208;11.162;2023-05-10T04:28:09;0.43;;;0.20;;
43809;SDS011;29440;48.208;11.162;2023-05-10T04:30:35;1.23;;;0.20;;
43809;SDS011;29440;48.208;11.162;2023-05-10T04:33:00;0.32;;;0.20;;
43809;SDS011;29440;48.208;11.162;2023-05-10T04:35:26;0.20;;;0.10;;
43809;SDS011;29440;48.208;11.162;2023-05-10T04:37:53;0.22;;;0.20;;
43809;SDS011;29440;48.208;11.162;2023-05-10T04:40:18;0.85;;;0.20;;
43809;SDS011;29440;48.208;11.162;2023-05-10T04:42:44;0.55;;;0.20;;
43809;SDS011;29440;48.208;11.162;2023-05-10T04:45:10;0.20;;;0.10;;
43809;SDS011;29440;48.208;11.162;2023-05-10T04:47:35;0.20;;;0.20;;
43809;SDS011;29440;48.208;11.162;2023-05-10T04:50:02;0.10;;;0.10;;
43809;SDS011;29440;48.208;11.162;2023-05-10T04:52:31;1.60;;;0.20;;
43809;SDS011;29440;48.208;11.162;2023-05-10T04:54:57;0.30;;;0.15;;
43809;SDS011;29440;48.208;11.162;2023-05-10T04:57:22;0.20;;;0.20;;
43809;SDS011;29440;48.208;11.162;2023-05-10T04:59:48;0.40;;;0.40;;
43809;SDS011;29440;48.208;11.162;2023-05-10T05:02:13;0.25;;;0.10;;
43809;SDS011;29440;48.208;11.162;2023-05-10T05:04:39;0.40;;;0.10;;
43809;SDS011;29440;48.208;11.162;2023-05-10T05:07:04;1.02;;;0.20;;
43809;SDS011;29440;48.208;11.162;2023-05-10T05:09:30;0.20;;;0.20;;
43809;SDS011;29440;48.208;11.162;2023-05-10T05:11:57;0.10;;;0.10;;
43809;SDS011;29440;48.208;11.162;2023-05-10T05:14:22;0.47;;;0.20;;
43809;SDS011;29440;48.208;11.162;2023-05-10T05:16:50;0.32;;;0.22;;
43809;SDS011;29440;48.208;11.162;2023-05-10T05:19:19;0.20;;;0.10;;
43809;SDS011;29440;48.208;11.162;2023-05-10T05:21:44;0.40;;;0.20;;
43809;SDS011;29440;48.208;11.162;2023-05-10T05:24:10;0.40;;;0.40;;
43809;SDS011;29440;48.208;11.162;2023-05-10T05:26:37;0.30;;;0.20;;
43809;SDS011;29440;48.208;11.162;2023-05-10T05:29:03;0.20;;;0.20;;
43809;SDS011;29440;48.208;11.162;2023-05-10T05:31:29;1.75;;;0.28;;
43809;SDS011;29440;48.208;11.162;2023-05-10T05:33:54;0.30;;;0.15;;
43809;SDS011;29440;48.208;11.162;2023-05-10T05:36:20;0.20;;;0.20;;
43809;SDS011;29440;48.208;11.162;2023-05-10T05:38:46;0.40;;;0.20;;
43809;SDS011;29440;48.208;11.162;2023-05-10T05:41:11;0.40;;;0.30;;
43809;SDS011;29440;48.208;11.162;2023-05-10T05:43:37;0.38;;;0.30;;
43809;SDS011;29440;48.208;11.162;2023-05-10T05:46:02;1.00;;;0.60;;
43809;SDS011;29440;48.208;11.162;2023-05-10T05:48:29;0.70;;;0.50;;
43809;SDS011;29440;48.208;11.162;2023-05-10T05:50:56;1.65;;;0.47;;
43809;SDS011;29440;48.208;11.162;2023-05-10T05:53:22;0.90;;;0.40;;
43809;SDS011;29440;48.208;11.162;2023-05-10T05:55:57;0.30;;;0.30;;
43809;SDS011;29440;48.208;11.162;2023-05-10T05:58:24;0.80;;;0.30;;
43809;SDS011;29440;48.208;11.162;2023-05-10T06:00:50;2.17;;;0.35;;
43809;SDS011;29440;48.208;11.162;2023-05-10T06:03:16;0.57;;;0.32;;
43809;SDS011;29440;48.208;11.162;2023-05-10T06:05:42;0.60;;;0.30;;
43809;SDS011;29440;48.208;11.162;2023-05-10T06:08:08;1.70;;;0.30;;
43809;SDS011;29440;48.208;11.162;2023-05-10T06:10:34;1.63;;;0.40;;
43809;SDS011;29440;48.208;11.162;2023-05-10T06:13:00;0.50;;;0.40;;
43809;SDS011;29440;48.208;11.162;2023-05-10T06:15:25;0.80;;;0.30;;
43809;SDS011;29440;48.208;11.162;2023-05-10T06:17:52;0.40;;;0.30;;
43809;SDS011;29440;48.208;11.162;2023-05-10T06:20:17;1.58;;;0.30;;
43809;SDS011;29440;48.208;11.162;2023-05-10T06:22:51;2.33;;;0.40;;
43809;SDS011;29440;48.208;11.162;2023-05-10T06:25:17;0.60;;;0.40;;
43809;SDS011;29440;48.208;11.162;2023-05-10T06:27:46;0.50;;;0.30;;
43809;SDS011;29440;48.208;11.162;2023-05-10T06:30:11;0.45;;;0.30;;
43809;SDS011;29440;48.208;11.162;2023-05-10T06:32:38;1.17;;;0.30;;
43809;SDS011;29440;48.208;11.162;2023-05-10T06:35:04;1.05;;;0.40;;
43809;SDS011;29440;48.208;11.162;2023-05-10T06:37:42;1.77;;;0.40;;
43809;SDS011;29440;48.208;11.162;2023-05-10T06:40:08;0.55;;;0.40;;
43809;SDS011;29440;48.208;11.162;2023-05-10T06:42:34;0.68;;;0.28;;
43809;SDS011;29440;48.208;11.162;2023-05-10T06:44:59;0.65;;;0.30;;
43809;SDS011;29440;48.208;11.162;2023-05-10T06:47:25;0.40;;;0.30;;
43809;SDS011;29440;48.208;11.162;2023-05-10T06:49:50;0.32;;;0.30;;
43809;SDS011;29440;48.208;11.162;2023-05-10T06:52:16;1.60;;;0.40;;
43809;SDS011;29440;48.208;11.162;2023-05-10T06:54:41;0.30;;;0.30;;
43809;SDS011;29440;48.208;11.162;2023-05-10T06:57:07;0.35;;;0.30;;
43809;SDS011;29440;48.208;11.162;2023-05-10T06:59:32;1.85;;;0.38;;
43809;SDS011;29440;48.208;11.162;2023-05-10T07:01:58;1.88;;;0.30;;
43809;SDS011;29440;48.208;11.162;2023-05-10T07:04:23;0.40;;;0.30;;
43809;SDS011;29440;48.208;11.162;2023-05-10T07:06:49;0.65;;;0.32;;
43809;SDS011;29440;48.208;11.162;2023-05-10T07:09:14;1.85;;;0.40;;
43809;SDS011;29440;48.208;11.162;2023-05-10T07:11:40;3.33;;;0.32;;
43809;SDS011;29440;48.208;11.162;2023-05-10T07:14:06;1.38;;;0.45;;
43809;SDS011;29440;48.208;11.162;2023-05-10T07:16:32;3.05;;;0.50;;
43809;SDS011;29440;48.208;11.162;2023-05-10T07:18:57;0.50;;;0.30;;
43809;SDS011;29440;48.208;11.162;2023-05-10T07:21:23;2.03;;;0.40;;
43809;SDS011;29440;48.208;11.162;2023-05-10T07:23:49;0.20;;;0.20;;
43809;SDS011;29440;48.208;11.162;2023-05-10T07:26:15;1.20;;;0.40;;
43809;SDS011;29440;48.208;11.162;2023-05-10T07:28:40;0.47;;;0.20;;
43809;SDS011;29440;48.208;11.162;2023-05-10T07:31:06;0.68;;;0.35;;
43809;SDS011;29440;48.208;11.162;2023-05-10T07:33:32;0.43;;;0.30;;
43809;SDS011;29440;48.208;11.162;2023-05-10T07:35:57;1.38;;;0.20;;
43809;SDS011;29440;48.208;11.162;2023-05-10T07:38:23;2.47;;;0.30;;
43809;SDS011;29440;48.208;11.162;2023-05-10T07:40:48;0.20;;;0.20;;
43809;SDS011;29440;48.208;11.162;2023-05-10T07:43:14;0.98;;;0.30;;
43809;SDS011;29440;48.208;11.162;2023-05-10T07:45:39;2.03;;;0.40;;
43809;SDS011;29440;48.208;11.162;2023-05-10T07:48:05;0.30;;;0.30;;
43809;SDS011;29440;48.208;11.162;2023-05-10T07:50:30;0.47;;;0.20;;
43809;SDS011;29440;48.208;11.162;2023-05-10T07:52:56;3.42;;;0.30;;
43809;SDS011;29440;48.208;11.162;2023-05-10T07:55:21;1.35;;;0.30;;
43809;SDS011;29440;48.208;11.162;2023-05-10T07:57:47;2.08;;;0.20;;
43809;SDS011;29440;48.208;11.162;2023-05-10T08:00:13;0.50;;;0.30;;
43809;SDS011;29440;48.208;11.162;2023-05-10T08:02:42;1.15;;;0.30;;
43809;SDS011;29440;48.208;11.162;2023-05-10T08:05:08;0.55;;;0.20;;
43809;SDS011;29440;48.208;11.162;2023-05-10T08:07:34;0.60;;;0.20;;
43809;SDS011;29440;48.208;11.162;2023-05-10T08:10:18;1.42;;;0.20;;
43809;SDS011;29440;48.208;11.162;2023-05-10T08:12:44;0.40;;;0.20;;
43809;SDS011;29440;48.208;11.162;2023-05-10T08:15:09;0.20;;;0.20;;
43809;SDS011;29440;48.208;11.162;2023-05-10T08:17:36;0.38;;;0.20;;
43809;SDS011;29440;48.208;11.162;2023-05-10T08:20:11;2.38;;;0.30;;
43809;SDS011;29440;48.208;11.162;2023-05-10T08:22:37;0.20;;;0.20;;
43809;SDS011;29440;48.208;11.162;2023-05-10T08:25:03;2.85;;;0.25;;
43809;SDS011;29440;48.208;11.162;2023-05-10T08:27:29;0.30;;;0.20;;
43809;SDS011;29440;48.208;11.162;2023-05-10T08:29:54;0.22;;;0.20;;
43809;SDS011;29440;48.208;11.162;2023-05-10T08:32:20;0.13;;;0.13;;
43809;SDS011;29440;48.208;11.162;2023-05-10T08:34:46;0.50;;;0.20;;
43809;SDS011;29440;48.208;11.162;2023-05-10T08:37:11;0.70;;;0.43;;
43809;SDS011;29440;48.208;11.162;2023-05-10T08:39:38;3.50;;;0.20;;
43809;SDS011;29440;48.208;11.162;2023-05-10T08:42:04;0.38;;;0.20;;
43809;SDS011;29440;48.208;11.162;2023-05-10T08:44:32;0.38;;;0.20;;
43809;SDS011;29440;48.208;11.162;2023-05-10T08:47:01;0.20;;;0.20;;
43809;SDS011;29440;48.208;11.162;2023-05-10T08:49:31;1.38;;;0.22;;
43809;SDS011;29440;48.208;11.162;2023-05-10T08:51:57;0.43;;;0.30;;
43809;SDS011;29440;48.208;11.162;2023-05-10T08:54:28;7.50;;;0.40;;
43809;SDS011;29440;48.208;11.162;2023-05-10T08:56:53;0.50;;;0.38;;
43809;SDS011;29440;48.208;11.162;2023-05-10T08:59:19;1.23;;;0.40;;
43809;SDS011;29440;48.208;11.162;2023-05-10T09:01:45;0.75;;;0.25;;
43809;SDS011;29440;48.208;11.162;2023-05-10T09:04:13;0.40;;;0.30;;
43809;SDS011;29440;48.208;11.162;2023-05-10T09:06:38;0.50;;;0.40;;
43809;SDS011;29440;48.208;11.162;2023-05-10T09:09:04;2.83;;;0.20;;
43809;SDS011;29440;48.208;11.162;2023-05-10T09:11:30;0.68;;;0.30;;
43809;SDS011;29440;48.208;11.162;2023-05-10T09:13:56;0.77;;;0.28;;
43809;SDS011;29440;48.208;11.162;2023-05-10T09:19:09;0.32;;;0.30;;
43809;SDS011;29440;48.208;11.162;2023-05-10T09:21:35;1.15;;;0.30;;
43809;SDS011;29440;48.208;11.162;2023-05-10T09:24:03;0.98;;;0.40;;
43809;SDS011;29440;48.208;11.162;2023-05-10T09:26:30;0.43;;;0.30;;
43809;SDS011;29440;48.208;11.162;2023-05-10T09:28:57;1.17;;;0.40;;
43809;SDS011;29440;48.208;11.162;2023-05-10T09:31:24;2.20;;;0.32;;
43809;SDS011;29440;48.208;11.162;2023-05-10T09:34:07;0.50;;;0.50;;
43809;SDS011;29440;48.208;11.162;2023-05-10T09:36:33;0.85;;;0.30;;
43809;SDS011;29440;48.208;11.162;2023-05-10T09:38:58;0.20;;;0.20;;
43809;SDS011;29440;48.208;11.162;2023-05-10T09:41:24;0.70;;;0.40;;
43809;SDS011;29440;48.208;11.162;2023-05-10T09:43:51;1.90;;;0.30;;
43809;SDS011;29440;48.208;11.162;2023-05-10T09:46:20;2.88;;;0.30;;
43809;SDS011;29440;48.208;11.162;2023-05-10T09:48:47;1.58;;;0.30;;
43809;SDS011;29440;48.208;11.162;2023-05-10T09:51:19;2.35;;;0.30;;
43809;SDS011;29440;48.208;11.162;2023-05-10T09:53:46;1.40;;;0.20;;
43809;SDS011;29440;48.208;11.162;2023-05-10T09:56:12;1.98;;;0.30;;
43809;SDS011;29440;48.208;11.162;2023-05-10T09:58:46;2.85;;;0.30;;
43809;SDS011;29440;48.208;11.162;2023-05-10T10:01:26;0.90;;;0.30;;
43809;SDS011;29440;48.208;11.162;2023-05-10T10:03:52;2.78;;;0.40;;
43809;SDS011;29440;48.208;11.162;2023-05-10T10:06:18;1.00;;;0.28;;
43809;SDS011;29440;48.208;11.162;2023-05-10T10:08:44;0.85;;;0.30;;
43809;SDS011;29440;48.208;11.162;2023-05-10T10:11:10;0.40;;;0.30;;
43809;SDS011;29440;48.208;11.162;2023-05-10T10:13:36;0.30;;;0.30;;
43809;SDS011;29440;48.208;11.162;2023-05-10T10:16:02;2.10;;;0.38;;
43809;SDS011;29440;48.208;11.162;2023-05-10T10:18:28;1.15;;;0.20;;
43809;SDS011;29440;48.208;11.162;2023-05-10T10:20:55;1.27;;;0.30;;
43809;SDS011;29440;48.208;11.162;2023-05-10T10:23:21;0.80;;;0.25;;
43809;SDS011;29440;48.208;11.162;2023-05-10T10:25:47;1.27;;;0.20;;
43809;SDS011;29440;48.208;11.162;2023-05-10T10:28:25;3.10;;;0.30;;
43809;SDS011;29440;48.208;11.162;2023-05-10T10:31:01;2.05;;;0.30;;
43809;SDS011;29440;48.208;11.162;2023-05-10T10:33:40;0.88;;;0.30;;
43809;SDS011;29440;48.208;11.162;2023-05-10T10:39:12;0.65;;;0.40;;
43809;SDS011;29440;48.208;11.162;2023-05-10T10:41:39;1.25;;;0.50;;
43809;SDS011;29440;48.208;11.162;2023-05-10T10:44:23;0.95;;;0.40;;
43809;SDS011;29440;48.208;11.162;2023-05-10T10:55:07;5.55;;;0.70;;
43809;SDS011;29440;48.208;11.162;2023-05-10T10:57:53;1.75;;;0.40;;
43809;SDS011;29440;48.208;11.162;2023-05-10T11:00:29;0.80;;;0.40;;
43809;SDS011;29440;48.208;11.162;2023-05-10T11:03:04;1.42;;;0.50;;
43809;SDS011;29440;48.208;11.162;2023-05-10T11:13:40;0.82;;;0.60;;
43809;SDS011;29440;48.208;11.162;2023-05-10T11:16:15;1.20;;;0.57;;
43809;SDS011;29440;48.208;11.162;2023-05-10T11:21:23;1.73;;;0.70;;
43809;SDS011;29440;48.208;11.162;2023-05-10T11:23:53;1.10;;;0.70;;
43809;SDS011;29440;48.208;11.162;2023-05-10T11:26:26;1.10;;;0.70;;
43809;SDS011;29440;48.208;11.162;2023-05-10T11:28:56;1.48;;;0.60;;
43809;SDS011;29440;48.208;11.162;2023-05-10T11:31:23;2.08;;;0.50;;
43809;SDS011;29440;48.208;11.162;2023-05-10T11:33:52;3.92;;;0.60;;
43809;SDS011;29440;48.208;11.162;2023-05-10T11:36:29;0.80;;;0.50;;
43809;SDS011;29440;48.208;11.162;2023-05-10T11:38:58;0.90;;;0.68;;
43809;SDS011;29440;48.208;11.162;2023-05-10T11:41:24;1.48;;;0.70;;
43809;SDS011;29440;48.208;11.162;2023-05-10T11:43:57;1.00;;;0.70;;
43809;SDS011;29440;48.208;11.162;2023-05-10T11:46:23;1.43;;;0.70;;
43809;SDS011;29440;48.208;11.162;2023-05-10T11:48:52;0.85;;;0.63;;
43809;SDS011;29440;48.208;11.162;2023-05-10T11:51:19;1.60;;;0.70;;
43809;SDS011;29440;48.208;11.162;2023-05-10T11:53:46;2.78;;;0.90;;
43809;SDS011;29440;48.208;11.162;2023-05-10T11:56:13;2.38;;;0.60;;
43809;SDS011;29440;48.208;11.162;2023-05-10T11:58:52;1.80;;;0.85;;
43809;SDS011;29440;48.208;11.162;2023-05-10T12:01:20;2.92;;;0.95;;
43809;SDS011;29440;48.208;11.162;2023-05-10T12:03:46;2.05;;;0.70;;
43809;SDS011;29440;48.208;11.162;2023-05-10T12:06:12;1.10;;;0.60;;
43809;SDS011;29440;48.208;11.162;2023-05-10T12:08:43;0.80;;;0.60;;
43809;SDS011;29440;48.208;11.162;2023-05-10T12:11:11;1.10;;;0.60;;
43809;SDS011;29440;48.208;11.162;2023-05-10T12:13:39;1.10;;;0.40;;
43809;SDS011;29440;48.208;11.162;2023-05-10T12:16:12;1.27;;;0.43;;
43809;SDS011;29440;48.208;11.162;2023-05-10T12:18:42;1.20;;;0.50;;
43809;SDS011;29440;48.208;11.162;2023-05-10T12:21:11;1.50;;;0.50;;
43809;SDS011;29440;48.208;11.162;2023-05-10T12:23:38;0.93;;;0.50;;
43809;SDS011;29440;48.208;11.162;2023-05-10T12:26:05;1.17;;;0.40;;
43809;SDS011;29440;48.208;11.162;2023-05-10T12:28:31;1.45;;;0.45;;
43809;SDS011;29440;48.208;11.162;2023-05-10T12:30:57;2.63;;;0.65;;
43809;SDS011;29440;48.208;11.162;2023-05-10T12:33:24;4.75;;;0.50;;
43809;SDS011;29440;48.208;11.162;2023-05-10T12:35:50;1.92;;;0.90;;
43809;SDS011;29440;48.208;11.162;2023-05-10T12:38:27;2.10;;;0.65;;
43809;SDS011;29440;48.208;11.162;2023-05-10T12:40:59;1.88;;;0.73;;
43809;SDS011;29440;48.208;11.162;2023-05-10T12:43:26;13.48;;;1.35;;
43809;SDS011;29440;48.208;11.162;2023-05-10T12:45:52;0.82;;;0.38;;
43809;SDS011;29440;48.208;11.162;2023-05-10T12:48:18;2.85;;;0.57;;
43809;SDS011;29440;48.208;11.162;2023-05-10T12:50:46;1.77;;;0.55;;
43809;SDS011;29440;48.208;11.162;2023-05-10T12:53:12;1.48;;;0.60;;
43809;SDS011;29440;48.208;11.162;2023-05-10T12:55:40;0.82;;;0.47;;
43809;SDS011;29440;48.208;11.162;2023-05-10T12:58:06;3.45;;;0.85;;
43809;SDS011;29440;48.208;11.162;2023-05-10T13:00:31;2.78;;;0.50;;
43809;SDS011;29440;48.208;11.162;2023-05-10T13:02:57;2.88;;;0.60;;
43809;SDS011;29440;48.208;11.162;2023-05-10T13:05:22;1.50;;;0.40;;
43809;SDS011;29440;48.208;11.162;2023-05-10T13:07:48;1.00;;;0.50;;
43809;SDS011;29440;48.208;11.162;2023-05-10T13:10:14;1.30;;;0.50;;
43809;SDS011;29440;48.208;11.162;2023-05-10T13:12:39;1.38;;;0.57;;
43809;SDS011;29440;48.208;11.162;2023-05-10T13:15:05;3.30;;;1.17;;
43809;SDS011;29440;48.208;11.162;2023-05-10T13:17:31;2.22;;;1.10;;
43809;SDS011;29440;48.208;11.162;2023-05-10T13:19:57;2.25;;;1.23;;
43809;SDS011;29440;48.208;11.162;2023-05-10T13:22:22;2.03;;;0.70;;
43809;SDS011;29440;48.208;11.162;2023-05-10T13:24:48;1.45;;;0.60;;
43809;SDS011;29440;48.208;11.162;2023-05-10T13:27:13;2.45;;;0.70;;
43809;SDS011;29440;48.208;11.162;2023-05-10T13:29:39;1.23;;;0.73;;
43809;SDS011;29440;48.208;11.162;2023-05-10T13:32:05;1.85;;;0.70;;
43809;SDS011;29440;48.208;11.162;2023-05-10T13:34:30;4.20;;;0.70;;
43809;SDS011;29440;48.208;11.162;2023-05-10T13:36:56;0.82;;;0.40;;
43809;SDS011;29440;48.208;11.162;2023-05-10T13:39:22;1.33;;;0.60;;
43809;SDS011;29440;48.208;11.162;2023-05-10T13:41:48;2.97;;;0.70;;
43809;SDS011;29440;48.208;11.162;2023-05-10T13:44:14;2.63;;;0.90;;
43809;SDS011;29440;48.208;11.162;2023-05-10T13:46:40;5.65;;;1.23;;
43809;SDS011;29440;48.208;11.162;2023-05-10T13:49:08;2.55;;;0.90;;
43809;SDS011;29440;48.208;11.162;2023-05-10T13:51:34;0.70;;;0.40;;
43809;SDS011;29440;48.208;11.162;2023-05-10T13:54:00;1.20;;;0.45;;
43809;SDS011;29440;48.208;11.162;2023-05-10T13:56:27;1.20;;;0.30;;
43809;SDS011;29440;48.208;11.162;2023-05-10T13:58:52;0.93;;;0.40;;
43809;SDS011;29440;48.208;11.162;2023-05-10T14:01:18;1.05;;;0.50;;
43809;SDS011;29440;48.208;11.162;2023-05-10T14:03:44;2.17;;;0.70;;
43809;SDS011;29440;48.208;11.162;2023-05-10T14:06:09;1.75;;;0.50;;
43809;SDS011;29440;48.208;11.162;2023-05-10T14:08:35;2.15;;;0.77;;
43809;SDS011;29440;48.208;11.162;2023-05-10T14:11:01;4.00;;;1.50;;
43809;SDS011;29440;48.208;11.162;2023-05-10T14:13:27;1.52;;;0.70;;
43809;SDS011;29440;48.208;11.162;2023-05-10T14:15:53;1.55;;;0.50;;
43809;SDS011;29440;48.208;11.162;2023-05-10T14:18:19;1.52;;;0.50;;
43809;SDS011;29440;48.208;11.162;2023-05-10T14:20:45;3.00;;;1.05;;
43809;SDS011;29440;48.208;11.162;2023-05-10T14:23:10;2.20;;;0.60;;
43809;SDS011;29440;48.208;11.162;2023-05-10T14:25:36;0.90;;;0.50;;
43809;SDS011;29440;48.208;11.162;2023-05-10T14:28:03;1.30;;;0.68;;
43809;SDS011;29440;48.208;11.162;2023-05-10T14:30:28;7.63;;;1.48;;
43809;SDS011;29440;48.208;11.162;2023-05-10T14:32:54;3.92;;;1.83;;
43809;SDS011;29440;48.208;11.162;2023-05-10T14:35:20;4.13;;;1.17;;
43809;SDS011;29440;48.208;11.162;2023-05-10T14:37:46;4.40;;;0.80;;
43809;SDS011;29440;48.208;11.162;2023-05-10T14:40:12;10.48;;;3.92;;
43809;SDS011;29440;48.208;11.162;2023-05-10T14:42:37;3.08;;;2.08;;
43809;SDS011;29440;48.208;11.162;2023-05-10T14:45:03;2.05;;;0.65;;
43809;SDS011;29440;48.208;11.162;2023-05-10T14:47:29;0.88;;;0.50;;
43809;SDS011;29440;48.208;11.162;2023-05-10T14:49:55;1.65;;;0.88;;
43809;SDS011;29440;48.208;11.162;2023-05-10T14:52:20;1.42;;;0.50;;
43809;SDS011;29440;48.208;11.162;2023-05-10T14:54:46;1.55;;;0.60;;
43809;SDS011;29440;48.208;11.162;2023-05-10T14:57:13;1.13;;;0.43;;
43809;SDS011;29440;48.208;11.162;2023-05-10T14:59:39;0.43;;;0.40;;
43809;SDS011;29440;48.208;11.162;2023-05-10T15:02:04;1.00;;;0.30;;
43809;SDS011;29440;48.208;11.162;2023-05-10T15:04:30;1.08;;;0.40;;
43809;SDS011;29440;48.208;11.162;2023-05-10T15:06:56;2.75;;;0.40;;
43809;SDS011;29440;48.208;11.162;2023-05-10T15:11:54;1.40;;;0.60;;
43809;SDS011;29440;48.208;11.162;2023-05-10T15:14:20;0.98;;;0.40;;
43809;SDS011;29440;48.208;11.162;2023-05-10T15:16:47;2.50;;;0.75;;